Fairbanks International Airport
PAFA : now visible

Airfield :











YOU CAN JOIN US ON...

 
LOGIN :

Register | Disclaimer

   EN    FR    IT 

 









Legend :    VFR   Marginal VFR   IFR   Intensive IFR   Very Intensive IFR
Visi :
Ceiling :
>= 8 km
>= 3000ft
5 to 8 km
1000 to 3000 ft
1500m to 5 km
500 to 1000 ft
800 to 1500m
200 to 500 ft
< 800m
< 200 ft
Symbols :   Thunderstorms  Fog  Heavy snow  Heavy precipitations  Wind > 20 kt






- Airport Elevation : 439 ft
- IATA code : FAI


PAFA - Fairbanks International

CURRENT METAR :
  • 271253Z 07003KT 10SM SCT060 BKN120 BKN200 04/02 A3025 RMK AO2 SLP250 T00440022

EXPIRED METARs :
  • 271153Z 00000KT 10SM FEW060 SCT110 BKN200 04/02 A3024 RMK AO2 SLP245 T00440017 10144 20039 51018
  • 271053Z 05004KT 10SM FEW070 SCT100 SCT200 04/02 A3022 RMK AO2 SLP241 T00440022

TAF PAFA
Valid from the 27 at 12:00 until the 28 at 18:00 UTC


271143Z 2712/2818 VRB04KT P6SM SCT070 BKN200
FM272200 25005KT P6SM VCSH BKN070
PAZA FIR / North America



MET'MAP, your aeronautical weather chart ! - Copyright ORBIFLY December 2007 - Disclaimer

ORBIFLY MET'MAP TEAM :

Programming & Development : Alexandra Zaïnal
Concept & original design : Baudouin d'Aumeries
Assistance for programming : Marc-Olivier Méhu
Technical & hardware support : Manuel Goepfert

Contact : metmap@orbifly.com




SOURCES & CREDITS :

   NOAA       Earth
Advisory